createdAt,value
2022-12-13T00:02:12.771Z,0.61
2022-12-13T00:04:42.162Z,0.65
2022-12-13T00:07:10.398Z,0.65
2022-12-13T00:09:39.423Z,0.65
2022-12-13T00:12:08.052Z,0.65
2022-12-13T00:14:36.501Z,0.63
2022-12-13T00:17:04.683Z,0.67
2022-12-13T00:19:32.198Z,0.69
2022-12-13T00:22:01.159Z,0.72
2022-12-13T00:24:30.591Z,0.73
2022-12-13T00:26:58.809Z,0.75
2022-12-13T00:29:27.225Z,0.76
2022-12-13T00:32:00.392Z,0.79
2022-12-13T00:34:30.189Z,0.84
2022-12-13T00:37:01.742Z,0.93
2022-12-13T00:39:30.845Z,1.01
2022-12-13T00:41:59.269Z,1.09
2022-12-13T00:44:27.800Z,1.13
2022-12-13T00:46:56.735Z,1.12
2022-12-13T00:49:25.685Z,1.06
2022-12-13T00:51:54.365Z,1.03
2022-12-13T00:54:23.054Z,1.03
2022-12-13T00:56:51.883Z,1.03
2022-12-13T00:59:20.054Z,1.05
2022-12-13T01:01:48.528Z,1.09
2022-12-13T01:04:17.397Z,1.18
2022-12-13T01:06:47.343Z,1.25
2022-12-13T01:09:27.354Z,1.28
2022-12-13T01:12:01.987Z,1.28
2022-12-13T01:14:30.498Z,1.21
2022-12-13T01:16:59.493Z,1.11
2022-12-13T01:19:29.098Z,1.02
2022-12-13T01:21:59.949Z,0.95
2022-12-13T01:24:29.058Z,0.95
2022-12-13T01:26:57.589Z,0.99
2022-12-13T01:29:27.894Z,1.06
2022-12-13T01:31:55.828Z,1.14
2022-12-13T01:34:26.661Z,1.20
2022-12-13T01:36:58.668Z,1.25
2022-12-13T01:39:27.569Z,1.28
2022-12-13T01:41:59.946Z,1.26
2022-12-13T01:45:02.284Z,1.23
2022-12-13T01:47:37.934Z,1.17
2022-12-13T01:50:17.057Z,1.14
2022-12-13T01:52:46.824Z,1.17
2022-12-13T01:55:17.759Z,1.21
2022-12-13T01:57:50.230Z,1.26
2022-12-13T02:00:17.895Z,1.28
2022-12-13T02:02:47.805Z,1.33
2022-12-13T02:06:02.245Z,1.37
2022-12-13T02:08:30.531Z,1.41
2022-12-13T02:11:06.039Z,1.44
2022-12-13T02:13:36.265Z,1.47
2022-12-13T02:16:32.964Z,1.50
2022-12-13T02:19:12.372Z,1.53
2022-12-13T02:21:55.115Z,1.58
2022-12-13T02:24:51.265Z,1.61
2022-12-13T02:28:00.841Z,1.63
2022-12-13T02:30:34.519Z,1.65
2022-12-13T02:33:21.430Z,1.69
2022-12-13T02:36:07.333Z,1.72
2022-12-13T02:38:59.069Z,1.71
2022-12-13T02:41:37.643Z,1.71
2022-12-13T02:44:30.605Z,1.75
2022-12-13T02:47:27.998Z,1.82
2022-12-13T02:50:00.382Z,1.88
2022-12-13T02:52:31.860Z,1.91
2022-12-13T02:55:00.414Z,1.96
2022-12-13T02:57:30.660Z,2.00
2022-12-13T03:00:03.683Z,2.00
2022-12-13T03:02:44.016Z,2.00
2022-12-13T03:05:45.286Z,1.97
2022-12-13T03:08:22.224Z,1.97
2022-12-13T03:11:00.623Z,1.98
2022-12-13T03:13:54.576Z,1.99
2022-12-13T03:16:48.560Z,2.02
2022-12-13T03:19:17.669Z,2.02
2022-12-13T03:21:50.860Z,2.03
2022-12-13T03:24:21.186Z,2.04
2022-12-13T03:26:51.321Z,2.04
2022-12-13T03:29:23.404Z,2.04
2022-12-13T03:31:51.885Z,2.06
2022-12-13T03:34:22.324Z,2.11
2022-12-13T03:36:52.565Z,2.17
2022-12-13T03:39:21.347Z,2.19
2022-12-13T03:41:51.186Z,2.17
2022-12-13T03:44:19.880Z,2.18
2022-12-13T03:46:49.423Z,2.18
2022-12-13T03:49:17.786Z,2.15
2022-12-13T03:51:46.365Z,2.14
2022-12-13T03:54:14.948Z,2.15
2022-12-13T03:56:43.911Z,2.15
2022-12-13T03:59:11.717Z,2.15
2022-12-13T04:01:39.412Z,2.20
2022-12-13T04:04:07.958Z,2.26
2022-12-13T04:06:37.646Z,2.29
2022-12-13T04:09:06.353Z,2.34
2022-12-13T04:11:53.372Z,2.36
2022-12-13T04:14:22.441Z,2.36
2022-12-13T04:16:52.627Z,2.36
2022-12-13T04:19:23.189Z,2.35
2022-12-13T04:21:54.732Z,2.32
2022-12-13T04:24:31.544Z,2.29
2022-12-13T04:27:02.370Z,2.30
2022-12-13T04:29:34.669Z,2.34
2022-12-13T04:32:05.136Z,2.35
2022-12-13T04:34:53.613Z,2.30
2022-12-13T04:37:30.835Z,2.23
2022-12-13T04:40:00.542Z,2.20
2022-12-13T04:42:30.647Z,2.23
2022-12-13T04:44:58.834Z,2.26
2022-12-13T04:47:27.704Z,2.30
2022-12-13T04:49:56.415Z,2.34
2022-12-13T04:52:24.975Z,2.39
2022-12-13T04:54:55.824Z,2.40
2022-12-13T04:57:25.955Z,2.40
2022-12-13T04:59:55.413Z,2.42
2022-12-13T05:02:24.386Z,2.43
2022-12-13T05:04:54.061Z,2.44
2022-12-13T05:07:24.787Z,2.46
2022-12-13T05:09:53.381Z,2.47
2022-12-13T05:12:23.686Z,2.48
2022-12-13T05:14:53.819Z,2.48
2022-12-13T05:17:22.109Z,2.48
2022-12-13T05:19:50.852Z,2.43
2022-12-13T05:22:21.168Z,2.38
2022-12-13T05:24:49.849Z,2.37
2022-12-13T05:27:23.972Z,2.37
2022-12-13T05:30:05.244Z,2.33
2022-12-13T05:32:44.165Z,2.29
2022-12-13T05:35:14.802Z,2.28
2022-12-13T05:37:55.496Z,2.29
2022-12-13T05:40:25.638Z,2.29
2022-12-13T05:43:01.293Z,2.28
2022-12-13T05:45:32.179Z,2.31
2022-12-13T05:48:02.136Z,2.34
2022-12-13T05:50:30.505Z,2.34
2022-12-13T05:52:58.549Z,2.37
2022-12-13T05:55:29.393Z,2.35
2022-12-13T05:58:02.491Z,2.32
2022-12-13T06:00:31.655Z,2.30
2022-12-13T06:03:01.931Z,2.29
2022-12-13T06:05:31.688Z,2.29
2022-12-13T06:08:01.042Z,2.27
2022-12-13T06:10:34.334Z,2.28
2022-12-13T06:13:21.716Z,2.27
2022-12-13T06:16:01.661Z,2.25
2022-12-13T06:18:35.707Z,2.29
2022-12-13T06:21:08.063Z,2.36
2022-12-13T06:23:37.822Z,2.42
2022-12-13T06:26:07.095Z,2.49
2022-12-13T06:28:35.697Z,2.54
2022-12-13T06:31:05.376Z,2.58
2022-12-13T06:33:39.203Z,2.60
2022-12-13T06:36:10.270Z,2.59
2022-12-13T06:38:43.286Z,2.60
2022-12-13T06:41:17.086Z,2.62
2022-12-13T06:43:47.347Z,2.61
2022-12-13T06:46:16.577Z,2.59
2022-12-13T06:48:43.486Z,2.60
2022-12-13T06:51:12.948Z,2.62
2022-12-13T06:53:51.155Z,2.65
2022-12-13T06:56:19.775Z,2.71
2022-12-13T06:58:47.448Z,2.74
2022-12-13T07:01:24.606Z,2.77
2022-12-13T07:03:55.571Z,2.82
2022-12-13T07:06:25.944Z,2.85
2022-12-13T07:08:57.935Z,2.85
2022-12-13T07:11:30.159Z,2.81
2022-12-13T07:13:59.949Z,2.77
2022-12-13T07:16:30.222Z,2.76
2022-12-13T07:19:03.338Z,2.76
2022-12-13T07:21:32.304Z,2.81
2022-12-13T07:24:01.411Z,2.85
2022-12-13T07:26:29.562Z,2.90
2022-12-13T07:28:58.280Z,2.94
2022-12-13T07:31:29.968Z,2.97
2022-12-13T07:33:58.382Z,2.98
2022-12-13T07:36:27.009Z,2.94
2022-12-13T07:38:57.220Z,2.91
2022-12-13T07:41:26.839Z,2.90
2022-12-13T07:43:56.353Z,2.89
2022-12-13T07:46:33.051Z,2.90
2022-12-13T07:49:04.145Z,2.95
2022-12-13T07:51:35.894Z,2.99
2022-12-13T07:54:06.490Z,3.02
2022-12-13T07:56:37.028Z,3.09
2022-12-13T07:59:05.757Z,3.14
2022-12-13T08:01:34.810Z,3.18
2022-12-13T08:04:05.269Z,3.21
2022-12-13T08:06:38.970Z,3.21
2022-12-13T08:09:07.876Z,3.20
2022-12-13T08:11:36.961Z,3.19
2022-12-13T08:14:08.060Z,3.17
2022-12-13T08:16:36.564Z,3.17
2022-12-13T08:19:04.887Z,3.17
2022-12-13T08:21:58.005Z,3.16
2022-12-13T08:24:30.373Z,3.16
2022-12-13T08:27:03.381Z,3.17
2022-12-13T08:29:35.652Z,3.14
2022-12-13T08:32:27.165Z,3.15
2022-12-13T08:34:55.868Z,3.17
2022-12-13T08:37:24.076Z,3.15
2022-12-13T08:39:52.852Z,3.15
2022-12-13T08:42:20.739Z,3.15
2022-12-13T08:44:50.875Z,3.15
2022-12-13T08:47:23.518Z,3.20
2022-12-13T08:50:01.900Z,3.25
2022-12-13T08:52:39.519Z,3.29
2022-12-13T08:55:14.695Z,3.32
2022-12-13T08:57:44.419Z,3.33
2022-12-13T09:00:17.283Z,3.38
2022-12-13T09:02:46.696Z,3.42
2022-12-13T09:05:33.129Z,3.45
2022-12-13T09:08:23.582Z,3.46
2022-12-13T09:11:34.989Z,3.43
2022-12-13T09:14:07.059Z,3.38
2022-12-13T09:16:42.450Z,3.38
2022-12-13T09:19:26.235Z,3.36
2022-12-13T09:22:02.659Z,3.37
2022-12-13T09:24:36.349Z,3.38
2022-12-13T09:27:09.389Z,3.44
2022-12-13T09:29:39.454Z,3.46
2022-12-13T09:32:08.353Z,3.49
2022-12-13T09:34:37.301Z,3.51
2022-12-13T09:37:07.417Z,3.54
2022-12-13T09:39:36.408Z,3.55
2022-12-13T09:42:10.194Z,3.60
2022-12-13T09:44:43.806Z,3.67
2022-12-13T09:47:28.397Z,3.73
2022-12-13T09:50:14.945Z,3.76
2022-12-13T09:52:45.047Z,3.76
2022-12-13T09:55:52.568Z,3.74
2022-12-13T09:58:29.634Z,3.72
2022-12-13T10:00:59.461Z,3.71
2022-12-13T10:03:28.682Z,3.70
2022-12-13T10:06:15.093Z,3.71
2022-12-13T10:08:57.315Z,3.75
2022-12-13T10:11:32.122Z,3.81
2022-12-13T10:14:16.089Z,3.87
2022-12-13T10:16:49.884Z,3.92
2022-12-13T10:19:46.443Z,3.96
2022-12-13T10:22:22.763Z,4.02
2022-12-13T10:25:01.357Z,4.07
2022-12-13T10:27:47.791Z,4.14
2022-12-13T10:30:28.899Z,4.14
2022-12-13T10:33:05.449Z,4.18
2022-12-13T10:35:34.655Z,4.18
2022-12-13T10:38:31.853Z,4.19
2022-12-13T10:41:00.983Z,4.20
2022-12-13T10:43:32.987Z,4.22
2022-12-13T10:46:04.116Z,4.20
2022-12-13T10:48:47.844Z,4.19
2022-12-13T10:51:20.423Z,4.19
2022-12-13T10:53:51.117Z,4.18
2022-12-13T10:56:23.385Z,4.18
2022-12-13T10:59:17.039Z,4.18
2022-12-13T11:01:46.583Z,4.16
2022-12-13T11:04:36.459Z,4.17
2022-12-13T11:07:24.620Z,4.17
2022-12-13T11:09:53.523Z,4.15
2022-12-13T11:12:25.392Z,4.13
2022-12-13T11:15:15.954Z,4.13
2022-12-13T11:18:21.269Z,4.13
2022-12-13T11:21:02.216Z,4.16
2022-12-13T11:23:38.916Z,4.24
2022-12-13T11:26:43.098Z,4.29
2022-12-13T11:29:22.656Z,4.34
2022-12-13T11:32:12.899Z,4.36
2022-12-13T11:34:52.779Z,4.38
2022-12-13T11:37:19.422Z,4.39
2022-12-13T11:40:11.761Z,4.43
2022-12-13T11:42:59.368Z,4.45
2022-12-13T11:45:38.343Z,4.43
2022-12-13T11:48:37.463Z,4.40
2022-12-13T11:51:09.276Z,4.36
2022-12-13T11:53:55.047Z,4.30
2022-12-13T11:57:00.552Z,4.27
2022-12-13T11:59:43.386Z,4.25
2022-12-13T12:02:21.661Z,4.22
2022-12-13T12:05:00.753Z,4.20
2022-12-13T12:07:34.352Z,4.19
2022-12-13T12:10:16.952Z,4.19
2022-12-13T12:12:56.313Z,4.18
2022-12-13T12:15:32.219Z,4.16
2022-12-13T12:18:01.030Z,4.14
2022-12-13T12:21:09.104Z,4.13
2022-12-13T12:23:48.390Z,4.13
2022-12-13T12:26:48.397Z,4.13
2022-12-13T12:29:35.166Z,4.21
2022-12-13T12:32:31.893Z,4.25
2022-12-13T12:35:21.186Z,4.32
2022-12-13T12:38:35.271Z,4.38
2022-12-13T12:41:21.217Z,4.46
2022-12-13T12:44:01.462Z,4.49
2022-12-13T12:47:09.176Z,4.51
2022-12-13T12:50:11.265Z,4.55
2022-12-13T12:52:50.187Z,4.56
2022-12-13T12:55:38.508Z,4.56
2022-12-13T12:58:21.631Z,4.54
2022-12-13T13:00:49.806Z,4.57
2022-12-13T13:03:28.199Z,4.56
2022-12-13T13:06:06.396Z,4.55
2022-12-13T13:08:53.413Z,4.54
2022-12-13T13:11:28.437Z,4.51
2022-12-13T13:14:01.979Z,4.49
2022-12-13T13:16:41.220Z,4.49
2022-12-13T13:19:11.884Z,4.47
2022-12-13T13:21:53.418Z,4.48
2022-12-13T13:24:26.999Z,4.48
2022-12-13T13:26:57.775Z,4.46
2022-12-13T13:29:28.440Z,4.46
2022-12-13T13:32:08.152Z,4.45
2022-12-13T13:34:40.692Z,4.44
2022-12-13T13:37:22.968Z,4.44
2022-12-13T13:40:02.781Z,4.45
2022-12-13T13:42:32.712Z,4.45
2022-12-13T13:45:51.775Z,4.47
2022-12-13T13:48:35.629Z,4.47
2022-12-13T13:51:31.287Z,4.47
2022-12-13T13:54:17.626Z,4.43
2022-12-13T13:57:04.238Z,4.49
2022-12-13T14:00:08.557Z,4.50
2022-12-13T14:03:22.477Z,4.52
2022-12-13T14:06:35.609Z,4.57
2022-12-13T14:09:22.757Z,4.60
2022-12-13T14:12:28.172Z,4.64
2022-12-13T14:15:14.013Z,4.68
2022-12-13T14:18:02.874Z,4.70
2022-12-13T14:20:56.308Z,4.71
2022-12-13T14:23:39.134Z,4.70
2022-12-13T14:26:38.080Z,4.71
2022-12-13T14:29:16.690Z,4.71
2022-12-13T14:31:49.799Z,4.71
2022-12-13T14:34:23.798Z,4.71
2022-12-13T14:37:03.935Z,4.71
2022-12-13T14:39:34.965Z,4.72
2022-12-13T14:42:21.653Z,4.73
2022-12-13T14:44:50.570Z,4.74
2022-12-13T14:47:19.259Z,4.72
2022-12-13T14:49:50.835Z,4.71
2022-12-13T14:52:44.383Z,4.70
2022-12-13T14:55:26.053Z,4.68
2022-12-13T14:57:57.045Z,4.66
2022-12-13T15:00:27.981Z,4.64
2022-12-13T15:03:00.690Z,4.63
2022-12-13T15:06:00.498Z,4.61
2022-12-13T15:08:29.272Z,4.61
2022-12-13T15:11:00.288Z,4.62
2022-12-13T15:13:44.856Z,4.63
2022-12-13T15:16:21.600Z,4.64
2022-12-13T15:19:41.292Z,4.68
2022-12-13T15:22:20.633Z,4.70
2022-12-13T15:24:52.332Z,4.71
2022-12-13T15:27:29.715Z,4.72
